createdAt,value
2022-09-14T00:01:37.079Z,72.03
2022-09-14T00:04:08.127Z,71.98
2022-09-14T00:06:35.621Z,70.79
2022-09-14T00:09:06.976Z,70.04
2022-09-14T00:11:38.279Z,69.98
2022-09-14T00:14:06.369Z,69.90
2022-09-14T00:16:39.135Z,70.67
2022-09-14T00:19:28.062Z,70.62
2022-09-14T00:21:57.668Z,70.20
2022-09-14T00:24:27.303Z,70.92
2022-09-14T00:26:55.269Z,70.30
2022-09-14T00:29:23.942Z,72.50
2022-09-14T00:31:51.929Z,71.45
2022-09-14T00:34:19.781Z,72.29
2022-09-14T00:36:49.428Z,72.18
2022-09-14T00:39:18.137Z,72.99
2022-09-14T00:41:47.562Z,73.85
2022-09-14T00:44:14.890Z,73.49
2022-09-14T00:46:43.988Z,73.44
2022-09-14T00:49:17.135Z,74.28
2022-09-14T00:51:53.062Z,75.05
2022-09-14T00:54:21.055Z,75.41
2022-09-14T00:56:49.294Z,75.22
2022-09-14T00:59:22.108Z,75.63
2022-09-14T01:01:50.668Z,75.80
2022-09-14T01:04:18.060Z,77.02
2022-09-14T01:06:59.065Z,76.68
2022-09-14T01:09:36.051Z,77.73
2022-09-14T01:12:06.369Z,78.04
2022-09-14T01:14:45.907Z,78.45
2022-09-14T01:17:31.819Z,79.12
2022-09-14T01:20:24.774Z,78.78
2022-09-14T01:23:03.975Z,79.24
2022-09-14T01:26:09.027Z,78.57
2022-09-14T01:28:47.007Z,78.63
2022-09-14T01:31:27.334Z,78.05
2022-09-14T01:34:06.937Z,79.06
2022-09-14T01:36:37.737Z,79.25
2022-09-14T01:39:06.852Z,80.12
2022-09-14T01:41:35.034Z,80.30
2022-09-14T01:44:09.417Z,80.60
2022-09-14T01:46:44.806Z,80.11
2022-09-14T01:49:18.999Z,80.48
2022-09-14T01:51:49.179Z,81.12
2022-09-14T01:54:20.708Z,81.23
2022-09-14T01:57:14.526Z,81.11
2022-09-14T01:59:44.896Z,81.49
2022-09-14T02:02:18.379Z,81.10
2022-09-14T02:05:09.382Z,81.21
2022-09-14T02:07:37.852Z,81.62
2022-09-14T02:10:10.633Z,80.92
2022-09-14T02:12:40.173Z,80.95
2022-09-14T02:15:11.220Z,78.40
2022-09-14T02:17:39.479Z,77.33
2022-09-14T02:20:14.516Z,76.47
2022-09-14T02:22:42.455Z,76.27
2022-09-14T02:25:10.175Z,76.00
2022-09-14T02:27:37.650Z,76.24
2022-09-14T02:30:05.706Z,75.19
2022-09-14T02:32:53.144Z,75.27
2022-09-14T02:35:36.046Z,74.80
2022-09-14T02:38:32.386Z,74.93
2022-09-14T02:41:37.401Z,73.46
2022-09-14T02:44:07.550Z,73.97
2022-09-14T02:46:42.413Z,72.54
2022-09-14T02:49:44.740Z,75.41
2022-09-14T02:52:36.141Z,76.13
2022-09-14T02:55:10.210Z,76.76
2022-09-14T02:58:00.615Z,77.11
2022-09-14T03:00:29.433Z,76.34
2022-09-14T03:02:57.574Z,75.04
2022-09-14T03:05:26.132Z,75.18
2022-09-14T03:07:53.481Z,76.75
2022-09-14T03:10:21.574Z,77.13
2022-09-14T03:12:49.020Z,77.83
2022-09-14T03:15:16.487Z,78.31
2022-09-14T03:17:48.264Z,77.47
2022-09-14T03:20:18.091Z,79.00
2022-09-14T03:22:46.304Z,79.16
2022-09-14T03:25:14.488Z,79.98
2022-09-14T03:27:41.938Z,79.86
2022-09-14T03:30:09.762Z,79.77
2022-09-14T03:32:39.980Z,79.95
2022-09-14T03:35:07.747Z,79.48
2022-09-14T03:37:38.443Z,79.43
2022-09-14T03:40:07.421Z,79.36
2022-09-14T03:42:35.174Z,79.63
2022-09-14T03:45:03.036Z,77.30
2022-09-14T03:47:31.309Z,78.67
2022-09-14T03:49:58.901Z,79.89
2022-09-14T03:52:26.146Z,80.35
2022-09-14T03:54:57.266Z,80.45
2022-09-14T03:57:24.590Z,80.38
2022-09-14T03:59:51.859Z,79.18
2022-09-14T04:02:19.714Z,79.67
2022-09-14T04:04:48.299Z,80.15
2022-09-14T04:07:16.017Z,80.15
2022-09-14T04:09:43.622Z,80.40
2022-09-14T04:12:11.044Z,80.31
2022-09-14T04:14:38.398Z,80.57
2022-09-14T04:17:05.762Z,80.86
2022-09-14T04:19:37.472Z,81.23
2022-09-14T04:22:05.441Z,81.25
2022-09-14T04:24:32.730Z,79.74
2022-09-14T04:27:00.073Z,79.47
2022-09-14T04:29:30.422Z,79.50
2022-09-14T04:31:58.085Z,80.73
2022-09-14T04:34:25.354Z,80.95
2022-09-14T04:36:52.718Z,81.32
2022-09-14T04:39:23.002Z,81.00
2022-09-14T04:41:50.367Z,80.96
2022-09-14T04:44:17.720Z,80.96
2022-09-14T04:46:46.792Z,81.18
2022-09-14T04:49:19.147Z,80.68
2022-09-14T04:51:46.391Z,80.83
2022-09-14T04:54:16.111Z,81.15
2022-09-14T04:56:44.639Z,82.15
2022-09-14T04:59:12.834Z,81.88
2022-09-14T05:01:43.573Z,81.63
2022-09-14T05:04:12.306Z,81.94
2022-09-14T05:06:42.201Z,81.57
2022-09-14T05:09:18.248Z,81.63
2022-09-14T05:11:46.059Z,81.29
2022-09-14T05:14:14.588Z,81.57
2022-09-14T05:16:43.936Z,80.96
2022-09-14T05:19:14.726Z,82.01
2022-09-14T05:21:42.230Z,81.73
2022-09-14T05:24:15.145Z,81.55
2022-09-14T05:26:46.511Z,81.78
2022-09-14T05:29:16.715Z,81.67
2022-09-14T05:31:45.000Z,80.43
2022-09-14T05:34:13.271Z,80.50
2022-09-14T05:36:41.191Z,81.24
2022-09-14T05:39:09.338Z,81.33
2022-09-14T05:41:37.839Z,81.12
2022-09-14T05:44:05.630Z,80.93
2022-09-14T05:46:35.144Z,79.75
2022-09-14T05:49:04.257Z,79.29
2022-09-14T05:51:31.549Z,78.79
2022-09-14T05:53:59.698Z,80.26
2022-09-14T05:56:28.779Z,80.28
2022-09-14T05:59:00.286Z,80.06
2022-09-14T06:01:33.052Z,78.39
2022-09-14T06:04:04.980Z,77.18
2022-09-14T06:06:33.140Z,76.17
2022-09-14T06:09:02.046Z,76.00
2022-09-14T06:11:31.684Z,75.21
2022-09-14T06:13:59.504Z,76.65
2022-09-14T06:16:28.043Z,74.11
2022-09-14T06:19:00.004Z,72.30
2022-09-14T06:21:29.506Z,70.55
2022-09-14T06:23:57.078Z,72.46
2022-09-14T06:26:25.283Z,70.79
2022-09-14T06:28:55.447Z,72.04
2022-09-14T06:31:22.773Z,72.16
2022-09-14T06:33:51.852Z,72.76
2022-09-14T06:36:22.832Z,71.97
2022-09-14T06:38:51.147Z,69.50
2022-09-14T06:41:26.591Z,63.98
2022-09-14T06:43:56.763Z,59.01
2022-09-14T06:46:26.449Z,57.60
2022-09-14T06:49:10.184Z,54.42
2022-09-14T06:51:40.033Z,56.12
2022-09-14T06:54:08.691Z,57.51
2022-09-14T06:56:38.721Z,59.15
2022-09-14T06:59:07.921Z,60.87
2022-09-14T07:01:36.598Z,59.60
2022-09-14T07:04:04.450Z,57.32
2022-09-14T07:06:39.468Z,55.93
2022-09-14T07:09:07.211Z,54.95
2022-09-14T07:11:35.147Z,54.57
2022-09-14T07:14:02.992Z,53.66
2022-09-14T07:16:32.019Z,51.04
2022-09-14T07:19:04.669Z,49.02
2022-09-14T07:21:33.944Z,50.05
2022-09-14T07:24:01.801Z,51.76
2022-09-14T07:26:32.361Z,55.18
2022-09-14T07:29:03.217Z,57.83
2022-09-14T07:31:36.420Z,59.37
2022-09-14T07:34:05.444Z,62.52
2022-09-14T07:36:35.582Z,63.38
2022-09-14T07:39:09.820Z,62.48
2022-09-14T07:41:37.247Z,64.05
2022-09-14T07:44:09.317Z,63.32
2022-09-14T07:46:39.391Z,63.64
2022-09-14T07:49:10.523Z,61.34
2022-09-14T07:51:38.716Z,60.98
2022-09-14T07:54:07.689Z,60.82
2022-09-14T07:56:35.326Z,59.50
2022-09-14T07:59:30.989Z,57.76
2022-09-14T08:01:50.343Z,60.07
2022-09-14T08:04:21.331Z,59.27
2022-09-14T08:06:48.552Z,58.77
2022-09-14T08:09:16.017Z,56.34
2022-09-14T08:11:43.364Z,55.46
2022-09-14T08:14:14.004Z,55.73
2022-09-14T08:16:41.868Z,53.87
2022-09-14T08:19:18.303Z,53.66
2022-09-14T08:21:47.521Z,53.73
2022-09-14T08:24:20.609Z,53.50
2022-09-14T08:26:48.931Z,56.98
2022-09-14T08:29:34.891Z,58.27
2022-09-14T08:32:02.377Z,60.08
2022-09-14T08:34:29.824Z,59.74
2022-09-14T08:36:57.089Z,57.85
2022-09-14T08:39:24.288Z,58.95
2022-09-14T08:41:57.596Z,58.60
2022-09-14T08:44:27.544Z,56.59
2022-09-14T08:47:13.550Z,57.39
2022-09-14T08:50:17.637Z,57.21
2022-09-14T08:52:52.829Z,58.59
2022-09-14T08:55:32.195Z,59.39
2022-09-14T08:58:21.450Z,60.42
2022-09-14T09:00:51.641Z,61.48
2022-09-14T09:03:19.246Z,61.09
2022-09-14T09:05:53.352Z,61.37
2022-09-14T09:08:31.958Z,62.06
2022-09-14T09:11:01.707Z,59.26
2022-09-14T09:13:39.072Z,61.17
2022-09-14T09:16:10.040Z,62.55
2022-09-14T09:18:53.161Z,62.33
2022-09-14T09:21:25.168Z,62.99
2022-09-14T09:23:58.923Z,63.52
2022-09-14T09:26:30.479Z,63.32
2022-09-14T09:29:00.572Z,64.03
2022-09-14T09:31:40.291Z,64.51
2022-09-14T09:34:33.211Z,66.32
2022-09-14T09:37:40.400Z,65.82
2022-09-14T09:40:16.950Z,67.37
2022-09-14T09:43:28.992Z,67.86
2022-09-14T09:46:10.221Z,68.23
2022-09-14T09:48:43.177Z,66.44
2022-09-14T09:51:28.673Z,64.53
2022-09-14T09:54:21.304Z,64.21
2022-09-14T09:57:27.345Z,57.72
2022-09-14T10:00:17.371Z,57.22
2022-09-14T10:02:44.772Z,57.53
2022-09-14T10:05:21.464Z,58.56
2022-09-14T10:07:59.545Z,58.57
2022-09-14T10:10:45.733Z,59.46
2022-09-14T10:13:22.401Z,60.20
2022-09-14T10:15:50.475Z,57.92
2022-09-14T10:18:19.827Z,55.70
2022-09-14T10:20:53.283Z,52.90
2022-09-14T10:23:20.620Z,53.62
2022-09-14T10:25:53.699Z,50.78
2022-09-14T10:28:22.622Z,49.81
2022-09-14T10:30:57.475Z,48.97
2022-09-14T10:33:24.754Z,47.00
2022-09-14T10:36:14.597Z,46.98
2022-09-14T10:38:46.582Z,46.41
2022-09-14T10:41:16.727Z,45.58
2022-09-14T10:44:05.397Z,47.24
2022-09-14T10:47:10.979Z,49.97
2022-09-14T10:49:48.079Z,51.26
2022-09-14T10:52:31.357Z,56.09
2022-09-14T10:55:01.648Z,55.29
2022-09-14T10:58:01.584Z,54.98
2022-09-14T11:00:38.578Z,54.51
2022-09-14T11:03:31.001Z,52.82
2022-09-14T11:06:26.185Z,51.10
2022-09-14T11:09:03.143Z,51.56
2022-09-14T11:11:56.809Z,52.11
2022-09-14T11:14:45.370Z,51.74
2022-09-14T11:17:39.748Z,49.51
2022-09-14T11:20:16.106Z,48.49
2022-09-14T11:23:09.975Z,50.27
2022-09-14T11:25:52.731Z,51.29
2022-09-14T11:28:28.672Z,50.53
2022-09-14T11:31:04.855Z,48.07
2022-09-14T11:33:43.583Z,49.04
2022-09-14T11:36:16.698Z,49.70
2022-09-14T11:38:51.368Z,48.58
2022-09-14T11:41:37.974Z,50.06
2022-09-14T11:44:37.225Z,49.07
2022-09-14T11:47:08.759Z,49.00
2022-09-14T11:49:39.678Z,48.78
2022-09-14T11:52:16.473Z,48.45
2022-09-14T11:54:46.837Z,47.73
2022-09-14T11:57:18.776Z,47.32
2022-09-14T11:59:50.246Z,47.73
2022-09-14T12:02:23.717Z,48.39
2022-09-14T12:05:06.576Z,49.07
2022-09-14T12:07:40.000Z,50.48
2022-09-14T12:10:17.592Z,49.12
2022-09-14T12:13:04.364Z,49.48
2022-09-14T12:15:41.081Z,48.47
2022-09-14T12:18:11.592Z,48.29
2022-09-14T12:20:41.895Z,46.75
2022-09-14T12:23:31.927Z,47.05
2022-09-14T12:26:05.307Z,45.27
2022-09-14T12:28:37.089Z,46.23
2022-09-14T12:31:04.600Z,46.94
2022-09-14T12:33:32.172Z,47.77
2022-09-14T12:36:00.527Z,46.86
2022-09-14T12:38:32.720Z,49.61
2022-09-14T12:41:01.440Z,47.49
2022-09-14T12:43:35.277Z,47.88
2022-09-14T12:46:04.498Z,48.57
2022-09-14T12:48:55.474Z,48.68
2022-09-14T12:51:32.503Z,50.59
2022-09-14T12:54:08.996Z,50.87
2022-09-14T12:56:48.466Z,48.31
2022-09-14T12:59:21.748Z,47.24
2022-09-14T13:01:59.199Z,46.33
2022-09-14T13:04:28.185Z,46.52
2022-09-14T13:06:58.032Z,45.92
2022-09-14T13:09:27.598Z,45.76
2022-09-14T13:12:00.475Z,45.61
2022-09-14T13:14:31.847Z,45.29
2022-09-14T13:17:01.145Z,46.43
2022-09-14T13:19:31.777Z,48.30
2022-09-14T13:22:01.637Z,49.41
2022-09-14T13:24:44.000Z,49.81
2022-09-14T13:27:25.288Z,49.91
2022-09-14T13:30:01.646Z,50.33
2022-09-14T13:32:36.103Z,50.18
2022-09-14T13:35:05.620Z,49.59
2022-09-14T13:37:38.650Z,49.66
2022-09-14T13:40:06.897Z,50.69
2022-09-14T13:42:35.266Z,50.26
2022-09-14T13:45:05.076Z,49.85
2022-09-14T13:47:32.473Z,49.46
2022-09-14T13:50:00.491Z,49.87
2022-09-14T13:53:00.437Z,49.21
2022-09-14T13:55:50.213Z,50.05
2022-09-14T13:58:23.171Z,52.06
2022-09-14T14:01:04.470Z,53.38
2022-09-14T14:03:41.125Z,52.58
2022-09-14T14:06:22.617Z,51.70
2022-09-14T14:09:08.145Z,52.19
2022-09-14T14:11:39.544Z,53.35
2022-09-14T14:14:18.908Z,54.01
2022-09-14T14:17:21.986Z,53.10
2022-09-14T14:19:51.002Z,53.65
2022-09-14T14:22:21.310Z,54.34
2022-09-14T14:27:43.494Z,54.50
2022-09-14T14:30:25.763Z,54.69
2022-09-14T14:32:54.908Z,53.63
2022-09-14T14:35:25.366Z,54.79
2022-09-14T14:37:52.861Z,55.16
2022-09-14T14:40:20.581Z,54.93
2022-09-14T14:42:51.473Z,54.82
2022-09-14T14:45:26.757Z,54.80
2022-09-14T14:47:55.743Z,54.77
2022-09-14T14:50:41.963Z,54.65
2022-09-14T14:53:09.252Z,55.61
2022-09-14T14:55:37.593Z,55.13
2022-09-14T14:58:07.243Z,55.60
2022-09-14T15:00:36.756Z,55.45
2022-09-14T15:03:04.800Z,57.01
2022-09-14T15:05:32.896Z,56.47
2022-09-14T15:08:00.231Z,56.80
2022-09-14T15:10:29.566Z,56.88
2022-09-14T15:12:57.198Z,57.36
2022-09-14T15:15:26.470Z,57.41
2022-09-14T15:17:54.610Z,57.62
2022-09-14T15:20:23.070Z,57.62
2022-09-14T15:22:50.576Z,57.74
2022-09-14T15:25:20.052Z,57.35
2022-09-14T15:27:47.859Z,57.27
2022-09-14T15:30:16.171Z,57.35
2022-09-14T15:32:43.797Z,57.59
2022-09-14T15:35:13.198Z,57.47
2022-09-14T15:37:41.637Z,57.49
2022-09-14T15:40:09.865Z,57.86
2022-09-14T15:42:37.362Z,58.21
2022-09-14T15:45:05.527Z,58.99
2022-09-14T15:47:36.205Z,58.71
2022-09-14T15:50:05.949Z,59.44
2022-09-14T15:52:37.727Z,59.98
2022-09-14T15:55:10.015Z,61.41
2022-09-14T15:57:38.749Z,63.07
2022-09-14T16:00:10.289Z,62.33
2022-09-14T16:02:50.193Z,64.78
2022-09-14T16:05:19.010Z,68.62
2022-09-14T16:07:46.317Z,70.65
2022-09-14T16:10:13.560Z,71.20
2022-09-14T16:12:41.946Z,73.43
2022-09-14T16:15:09.945Z,75.81
2022-09-14T16:17:37.230Z,76.41
2022-09-14T16:20:05.279Z,75.91
2022-09-14T16:22:32.778Z,75.20
2022-09-14T16:25:00.032Z,75.94
2022-09-14T16:27:27.340Z,75.52
2022-09-14T16:29:54.648Z,76.75
2022-09-14T16:32:25.380Z,77.31
2022-09-14T16:34:52.699Z,76.42
2022-09-14T16:37:19.941Z,77.24
2022-09-14T16:39:48.046Z,76.91
2022-09-14T16:42:15.316Z,73.67
2022-09-14T16:44:43.032Z,74.48
2022-09-14T16:47:10.299Z,75.75
2022-09-14T16:49:39.334Z,74.27
2022-09-14T16:52:06.779Z,75.21
2022-09-14T16:54:34.091Z,75.34
2022-09-14T16:57:01.556Z,77.48
2022-09-14T16:59:28.789Z,78.67
2022-09-14T17:01:56.281Z,79.17
2022-09-14T17:04:25.259Z,80.66
2022-09-14T17:06:53.209Z,80.08
2022-09-14T17:09:23.382Z,79.88
2022-09-14T17:11:51.502Z,79.01
2022-09-14T17:14:21.636Z,79.30
2022-09-14T17:16:49.669Z,79.73
2022-09-14T17:19:17.849Z,80.85
2022-09-14T17:21:46.416Z,81.57
2022-09-14T17:24:15.353Z,81.68
2022-09-14T17:26:43.201Z,82.24
2022-09-14T17:29:11.224Z,80.95
2022-09-14T17:31:42.222Z,80.92
2022-09-14T17:34:11.552Z,81.26
2022-09-14T17:36:39.365Z,82.22
2022-09-14T17:39:11.599Z,82.34
2022-09-14T17:41:41.477Z,83.13
2022-09-14T17:44:11.422Z,83.83
2022-09-14T17:46:47.137Z,84.82
2022-09-14T17:49:22.358Z,85.72
2022-09-14T17:51:50.819Z,86.08
2022-09-14T17:54:19.288Z,85.82
2022-09-14T17:56:46.755Z,85.58
2022-09-14T17:59:20.376Z,85.18
2022-09-14T18:01:49.184Z,84.28
2022-09-14T18:04:17.369Z,84.41
2022-09-14T18:06:47.200Z,83.07
2022-09-14T18:09:17.587Z,83.20
2022-09-14T18:11:46.062Z,84.99
2022-09-14T18:14:14.591Z,86.08
2022-09-14T18:16:43.258Z,86.28
2022-09-14T18:19:11.301Z,86.66
2022-09-14T18:21:40.082Z,86.61
2022-09-14T18:24:08.211Z,88.13
2022-09-14T18:26:35.969Z,89.05
2022-09-14T18:29:03.771Z,88.88
2022-09-14T18:31:31.172Z,88.69
2022-09-14T18:34:00.271Z,90.65
2022-09-14T18:36:29.652Z,90.30
2022-09-14T18:38:58.905Z,91.80
2022-09-14T18:41:29.483Z,92.51
2022-09-14T18:43:58.183Z,92.30
2022-09-14T18:46:28.088Z,90.16
2022-09-14T18:48:58.258Z,90.16
2022-09-14T18:51:27.402Z,88.92
2022-09-14T18:54:04.158Z,88.90
2022-09-14T18:56:35.580Z,89.13
2022-09-14T18:59:05.170Z,88.27
2022-09-14T19:01:37.329Z,88.84
2022-09-14T19:04:06.923Z,90.06
2022-09-14T19:06:35.656Z,91.83
2022-09-14T19:09:04.756Z,91.72
2022-09-14T19:11:33.433Z,90.40
2022-09-14T19:14:05.017Z,90.89
2022-09-14T19:16:32.394Z,89.34
2022-09-14T19:18:59.848Z,89.78
2022-09-14T19:21:29.687Z,89.98
2022-09-14T19:24:02.490Z,89.43
2022-09-14T19:26:33.280Z,92.62
2022-09-14T19:29:01.839Z,92.33
2022-09-14T19:31:30.870Z,92.60
2022-09-14T19:33:59.569Z,92.79
2022-09-14T19:36:30.414Z,92.54
2022-09-14T19:39:01.989Z,92.10
2022-09-14T19:41:33.173Z,91.43
2022-09-14T19:44:01.584Z,91.32
2022-09-14T19:46:32.723Z,90.74
2022-09-14T19:49:00.100Z,89.84
2022-09-14T19:51:29.762Z,92.39
2022-09-14T19:53:59.453Z,91.71
2022-09-14T19:56:32.579Z,91.82
2022-09-14T19:59:01.780Z,91.15
2022-09-14T20:01:30.757Z,92.59
2022-09-14T20:03:58.381Z,94.83
2022-09-14T20:06:31.476Z,94.05
2022-09-14T20:09:06.244Z,95.54
2022-09-14T20:11:35.033Z,97.11
2022-09-14T20:14:06.797Z,97.67
2022-09-14T20:16:38.198Z,97.25
2022-09-14T20:19:12.252Z,97.02
2022-09-14T20:21:41.383Z,97.46
2022-09-14T20:24:17.172Z,96.53
2022-09-14T20:26:47.407Z,95.84
2022-09-14T20:29:15.672Z,96.62
2022-09-14T20:31:43.732Z,95.50
2022-09-14T20:34:11.917Z,94.58
2022-09-14T20:36:39.369Z,93.69
2022-09-14T20:39:06.728Z,92.82
2022-09-14T20:41:35.768Z,93.42
2022-09-14T20:44:04.125Z,93.59
2022-09-14T20:46:38.554Z,94.54
2022-09-14T20:49:11.339Z,95.27
2022-09-14T20:51:40.029Z,95.32
2022-09-14T20:54:09.992Z,95.14
2022-09-14T20:56:37.976Z,95.72
2022-09-14T20:59:07.487Z,95.85
2022-09-14T21:01:41.657Z,95.49
2022-09-14T21:04:15.393Z,95.34
2022-09-14T21:06:45.482Z,95.26
2022-09-14T21:09:14.250Z,95.72
2022-09-14T21:11:43.460Z,96.51
2022-09-14T21:14:10.750Z,97.04
2022-09-14T21:16:44.207Z,97.30
2022-09-14T21:19:28.499Z,96.71
2022-09-14T21:21:56.463Z,97.36
2022-09-14T21:24:24.452Z,96.26
2022-09-14T21:26:51.730Z,96.20
2022-09-14T21:29:23.637Z,96.56
2022-09-14T21:31:51.874Z,95.61
2022-09-14T21:34:19.583Z,95.52
2022-09-14T21:36:49.494Z,96.75
2022-09-14T21:39:21.508Z,96.48
2022-09-14T21:41:51.423Z,96.24
2022-09-14T21:44:21.805Z,97.04
2022-09-14T21:46:49.087Z,97.68
2022-09-14T21:49:18.375Z,97.54
2022-09-14T21:51:46.862Z,96.96
2022-09-14T21:54:15.152Z,96.50
2022-09-14T21:56:45.119Z,96.08
2022-09-14T21:59:19.158Z,96.40
2022-09-14T22:01:48.280Z,95.15
2022-09-14T22:04:18.655Z,93.11
2022-09-14T22:06:46.628Z,90.32
2022-09-14T22:09:15.772Z,88.87
2022-09-14T22:11:43.287Z,87.27
2022-09-14T22:14:13.320Z,85.96
2022-09-14T22:16:41.555Z,87.13
2022-09-14T22:19:20.614Z,85.87
2022-09-14T22:21:48.657Z,86.31
2022-09-14T22:24:20.414Z,86.27
2022-09-14T22:26:48.636Z,86.84
2022-09-14T22:29:17.218Z,85.92
2022-09-14T22:31:46.613Z,87.64
2022-09-14T22:34:17.085Z,87.88
2022-09-14T22:36:44.781Z,89.45
2022-09-14T22:39:13.807Z,89.13
2022-09-14T22:41:41.342Z,91.14
2022-09-14T22:44:08.803Z,90.55
2022-09-14T22:46:36.904Z,90.26
2022-09-14T22:49:04.678Z,90.14
2022-09-14T22:51:32.486Z,90.18
2022-09-14T22:53:59.819Z,90.67
2022-09-14T22:56:31.338Z,92.22
2022-09-14T22:59:00.772Z,92.49
2022-09-14T23:01:30.776Z,91.46
2022-09-14T23:04:07.469Z,92.33
2022-09-14T23:06:38.354Z,92.47
2022-09-14T23:09:08.619Z,94.20
2022-09-14T23:11:36.196Z,94.34
2022-09-14T23:14:03.839Z,94.29
2022-09-14T23:16:31.551Z,94.18
2022-09-14T23:19:02.916Z,93.51
2022-09-14T23:21:31.560Z,93.36
2022-09-14T23:24:02.711Z,94.22
2022-09-14T23:26:30.466Z,94.98
2022-09-14T23:29:09.654Z,96.46
2022-09-14T23:31:36.988Z,96.88
2022-09-14T23:34:05.523Z,95.93
2022-09-14T23:36:33.949Z,95.40
2022-09-14T23:39:04.172Z,95.20
2022-09-14T23:41:31.654Z,94.04
2022-09-14T23:43:59.027Z,94.34
2022-09-14T23:46:26.413Z,92.63
2022-09-14T23:49:12.472Z,92.95
2022-09-14T23:51:41.369Z,92.01
2022-09-14T23:54:09.564Z,91.26
2022-09-14T23:56:40.285Z,91.77
2022-09-14T23:59:11.107Z,91.89
